Calgary, Alberta

6:01 AM MST on February 26, 2017 (GMT -0700)
Calgary International | | Change Station

Elev 3556 ft 51.12 °N, 114.02 °W | Updated 31 minutes ago

Light Snow
Light Snow Mist
14 °F
Feels Like 0 °F
N
12
Wind Variable Wind from North

Today
High -- | Low -- °F
--% Chance of Precip.
Yesterday
High -- | Low -- °F
Precip. -- in
Pressure 29.97 in
Visibility 5.0 miles
Clouds Few 900 ft
Overcast 4400 ft
Windchill 0 °F
Dew Point 10 °F
Humidity 86%
Rainfall 0.00 in
Snow Depth Not available.
7:26 AM 6:12 PM
Waning Crescent, 0% visible
SPECI CYYC 261230Z 35010KT 5SM -SN BR FEW009 OVC044 M10/M12 A2977 RMK SF1SC7 PCPN VRY LGT / LWR CLD N-NE SLP148
Pressure 29.97 in
Visibility 5.0 miles
Clouds Few 900 ft
Overcast 4400 ft
Windchill 0 °F
Dew Point 10 °F
Humidity 86%
Rainfall 0.00 in
Snow Depth Not available.
7:26 AM 6:12 PM
Waning Crescent, 0% visible
SPECI CYYC 261230Z 35010KT 5SM -SN BR FEW009 OVC044 M10/M12 A2977 RMK SF1SC7 PCPN VRY LGT / LWR CLD N-NE SLP148

Get Your Daily Forecast Email!

Thanks for signing up!

Be on the lookout for a verification email in your inbox.

You'll start receiving the daily forecast at 8 AM.

×

10-Day Weather Forecast

Almanac

Astronomy

Feb. 26, 2017 Rise Set
Actual Time
Civil Twilight
Nautical Twilight
Astronomical Twilight
Moon
Length of Visible Light
Length of Day
Tomorrow will be .
, % of the Moon is Illuminated

Today's Extremes

Country Highs Country Lows

Community

WunderPhotos

Upload Photos

1,962,540 photos uploaded!

WunderBlog® & News

Nearby

Air Quality

  Air Quality AQ Index Pollutant
Not available.

Snow Depth

Station Depth Elevation

Earthquake Activity

City Distance Mag. Time & Date
Minimum magnitude displayed is 2.5.

Coastal Water Temperatures

Place Temperature

Stations

Nearby Weather Stations

Station Location Temp. Windchill Dew Point Humidity Wind Precip. Elev Updated Type
                   

Watches & Warnings

There are currently no watches in effect.